createdAt,value
2022-08-23T00:00:01.195Z,3.60
2022-08-23T00:05:31.428Z,3.30
2022-08-23T00:10:34.412Z,3.70
2022-08-23T00:15:37.895Z,3.80
2022-08-23T00:20:40.633Z,4.00
2022-08-23T00:25:43.934Z,4.20
2022-08-23T00:30:46.713Z,3.80
2022-08-23T00:35:49.978Z,4.00
2022-08-23T00:40:53.933Z,3.50
2022-08-23T00:46:33.574Z,4.00
2022-08-23T00:51:57.765Z,3.90
2022-08-23T00:57:05.672Z,3.90
2022-08-23T01:02:09.956Z,3.80
2022-08-23T01:07:19.609Z,3.60
2022-08-23T01:12:35.516Z,4.20
2022-08-23T01:17:46.573Z,4.20
2022-08-23T01:22:59.018Z,4.00
2022-08-23T01:28:01.991Z,4.10
2022-08-23T01:33:07.426Z,4.50
2022-08-23T01:38:11.685Z,4.40
2022-08-23T01:43:15.509Z,4.60
2022-08-23T01:48:18.907Z,4.30
2022-08-23T01:53:21.578Z,4.10
2022-08-23T01:58:24.781Z,4.30
2022-08-23T02:03:29.718Z,4.10
2022-08-23T02:08:52.463Z,4.30
2022-08-23T02:13:58.934Z,4.30
2022-08-23T02:19:06.078Z,4.60
2022-08-23T02:24:22.086Z,4.50
2022-08-23T02:29:29.671Z,4.20
2022-08-23T02:34:32.544Z,4.50
2022-08-23T02:39:38.774Z,4.00
2022-08-23T02:44:42.102Z,4.70
2022-08-23T02:49:44.858Z,4.70
2022-08-23T02:54:50.589Z,5.40
2022-08-23T02:59:56.016Z,6.50
2022-08-23T03:04:59.319Z,6.20
2022-08-23T03:10:02.476Z,6.00
2022-08-23T03:15:06.889Z,6.00
2022-08-23T03:20:11.241Z,6.80
2022-08-23T03:25:13.925Z,7.10
2022-08-23T03:30:19.935Z,9.20
2022-08-23T03:35:23.022Z,12.00
2022-08-23T03:40:26.114Z,11.90
2022-08-23T03:45:29.759Z,7.50
2022-08-23T03:50:32.533Z,6.40
2022-08-23T03:55:38.502Z,5.60
2022-08-23T04:00:45.320Z,5.60
2022-08-23T04:05:48.548Z,5.90
2022-08-23T04:10:51.304Z,5.60
2022-08-23T04:15:55.231Z,5.20
2022-08-23T04:21:01.517Z,5.80
2022-08-23T04:26:05.923Z,7.10
2022-08-23T04:31:12.556Z,6.30
2022-08-23T04:36:15.281Z,6.60
2022-08-23T04:41:37.591Z,8.90
2022-08-23T04:46:40.917Z,9.30
2022-08-23T04:51:43.829Z,10.70
2022-08-23T04:56:56.682Z,9.70
2022-08-23T05:01:59.489Z,11.10
2022-08-23T05:07:02.701Z,6.90
2022-08-23T05:12:05.794Z,7.30
2022-08-23T05:17:08.509Z,9.20
2022-08-23T05:22:12.537Z,9.30
2022-08-23T05:27:16.186Z,6.00
2022-08-23T05:32:19.160Z,5.40
2022-08-23T05:37:21.913Z,6.20
2022-08-23T05:42:24.705Z,6.00
2022-08-23T05:47:28.279Z,5.90
2022-08-23T05:52:36.678Z,5.30
2022-08-23T05:57:39.674Z,5.30
2022-08-23T06:02:43.084Z,5.90
2022-08-23T06:07:45.863Z,6.30
2022-08-23T06:12:49.108Z,5.80
2022-08-23T06:17:51.883Z,5.60
2022-08-23T06:22:54.662Z,5.50
2022-08-23T06:27:58.892Z,5.20
2022-08-23T06:33:02.956Z,5.00
2022-08-23T06:38:06.966Z,6.00
2022-08-23T06:43:09.968Z,4.80
2022-08-23T06:48:17.022Z,4.70
2022-08-23T06:53:21.453Z,5.10
2022-08-23T06:58:25.422Z,5.40
2022-08-23T07:03:28.655Z,5.00
2022-08-23T07:08:31.452Z,5.20
2022-08-23T07:13:34.605Z,5.30
2022-08-23T07:18:37.680Z,5.60
2022-08-23T07:23:42.836Z,4.90
2022-08-23T07:28:50.334Z,4.80
2022-08-23T07:33:58.859Z,5.00
2022-08-23T07:39:04.549Z,5.40
2022-08-23T07:44:10.186Z,5.20
2022-08-23T07:49:13.672Z,5.50
2022-08-23T07:54:18.376Z,5.40
2022-08-23T07:59:21.087Z,5.40
2022-08-23T08:04:23.765Z,5.00
2022-08-23T08:09:26.611Z,5.20
2022-08-23T08:14:29.718Z,5.70
2022-08-23T08:19:32.521Z,4.50
2022-08-23T08:24:35.795Z,4.60
2022-08-23T08:29:38.695Z,5.00
2022-08-23T08:34:42.122Z,4.10
2022-08-23T08:39:48.013Z,4.00
2022-08-23T08:45:05.656Z,3.70
2022-08-23T08:50:14.562Z,3.40
2022-08-23T08:55:32.077Z,3.50
2022-08-23T09:00:39.237Z,3.40
2022-08-23T09:05:56.393Z,3.50
2022-08-23T09:11:24.157Z,3.20
2022-08-23T09:16:41.819Z,3.40
2022-08-23T09:21:49.776Z,3.50
2022-08-23T09:26:54.034Z,4.00
2022-08-23T09:32:02.344Z,4.20
2022-08-23T09:37:18.009Z,4.00
2022-08-23T09:42:35.982Z,3.90
2022-08-23T09:47:44.869Z,3.80
2022-08-23T09:52:48.741Z,3.90
2022-08-23T09:57:52.108Z,3.90
2022-08-23T10:02:57.997Z,4.10
2022-08-23T10:08:02.624Z,4.20
2022-08-23T10:13:06.240Z,4.40
2022-08-23T10:18:29.081Z,4.20
2022-08-23T10:23:56.427Z,4.20
2022-08-23T10:29:23.254Z,4.60
2022-08-23T10:34:31.748Z,4.70
2022-08-23T10:40:03.518Z,4.50
2022-08-23T10:45:30.586Z,4.90
2022-08-23T10:50:43.067Z,4.70
2022-08-23T10:56:15.629Z,4.80
2022-08-23T11:01:44.247Z,4.80
2022-08-23T11:06:55.550Z,4.90
2022-08-23T11:12:23.668Z,4.90
2022-08-23T11:17:48.382Z,4.30
2022-08-23T11:22:57.411Z,4.70
2022-08-23T11:28:22.127Z,4.30
2022-08-23T11:33:31.492Z,4.70
2022-08-23T11:38:49.337Z,4.30
2022-08-23T11:44:07.825Z,4.60
2022-08-23T11:49:28.927Z,4.80
2022-08-23T11:54:56.832Z,4.80
2022-08-23T12:00:28.633Z,4.50
2022-08-23T12:05:35.411Z,4.80
2022-08-23T12:10:38.073Z,4.60
2022-08-23T12:16:16.917Z,4.60
2022-08-23T12:21:43.987Z,4.50
2022-08-23T12:27:11.429Z,4.10
2022-08-23T12:32:37.917Z,4.30
2022-08-23T12:37:56.881Z,4.50
2022-08-23T12:43:23.112Z,4.50
2022-08-23T12:48:30.216Z,4.40
2022-08-23T12:53:38.520Z,4.60
2022-08-23T12:58:52.515Z,4.60
2022-08-23T13:04:06.321Z,5.20
2022-08-23T13:09:22.659Z,5.80
2022-08-23T13:14:26.733Z,5.90
2022-08-23T13:19:34.118Z,5.30
2022-08-23T13:24:40.422Z,5.80
2022-08-23T13:29:52.317Z,6.20
2022-08-23T13:34:56.710Z,5.80
2022-08-23T13:40:14.281Z,5.60
2022-08-23T13:45:25.532Z,6.20
2022-08-23T13:50:35.291Z,5.90
2022-08-23T13:55:46.461Z,6.20
2022-08-23T14:00:55.303Z,7.20
2022-08-23T14:05:58.386Z,6.90
2022-08-23T14:11:01.492Z,4.60
2022-08-23T14:21:32.327Z,6.60
2022-08-23T14:26:35.302Z,5.70
2022-08-23T14:31:38.245Z,6.50
2022-08-23T14:38:00.239Z,8.00
2022-08-23T14:42:07.989Z,8.90
2022-08-23T14:47:11.529Z,8.90
2022-08-23T14:52:15.626Z,8.80
2022-08-23T14:57:18.418Z,6.90
2022-08-23T15:02:24.823Z,7.00
2022-08-23T15:07:27.762Z,8.60
2022-08-23T15:17:57.627Z,6.30
2022-08-23T15:23:01.012Z,6.80
2022-08-23T15:28:12.204Z,7.50
2022-08-23T15:33:16.040Z,7.80
2022-08-23T15:38:22.968Z,8.20
2022-08-23T15:43:34.104Z,8.90
2022-08-23T15:48:44.736Z,9.20
2022-08-23T15:53:47.877Z,7.90
2022-08-23T15:58:54.114Z,9.20
2022-08-23T16:03:57.562Z,12.10
2022-08-23T16:09:00.871Z,8.80
2022-08-23T16:14:03.901Z,7.00
2022-08-23T16:19:08.918Z,5.80
2022-08-23T16:24:12.028Z,5.50
2022-08-23T16:29:18.222Z,5.40
2022-08-23T16:34:21.061Z,7.70
2022-08-23T16:39:24.475Z,7.00
2022-08-23T16:44:28.590Z,5.70
2022-08-23T16:49:34.378Z,4.70
2022-08-23T16:54:37.993Z,5.00
2022-08-23T16:59:40.796Z,5.60
2022-08-23T17:04:43.507Z,6.70
2022-08-23T17:09:47.221Z,6.50
2022-08-23T17:14:51.512Z,5.20
2022-08-23T17:19:54.312Z,5.70
2022-08-23T17:24:57.616Z,6.60
2022-08-23T17:30:00.835Z,6.10
2022-08-23T17:35:03.871Z,6.70
2022-08-23T17:40:10.840Z,7.30
2022-08-23T17:45:16.538Z,7.00
2022-08-23T17:50:20.780Z,6.70
2022-08-23T17:55:24.853Z,6.30
2022-08-23T18:00:28.726Z,6.30
2022-08-23T18:05:33.398Z,6.10
2022-08-23T18:10:36.671Z,6.70
2022-08-23T18:15:39.657Z,6.20
2022-08-23T18:20:42.399Z,5.50
2022-08-23T18:25:45.922Z,5.40
2022-08-23T18:30:54.730Z,5.80
2022-08-23T18:35:57.530Z,5.30
2022-08-23T18:41:00.273Z,6.20
2022-08-23T18:46:03.121Z,6.40
2022-08-23T18:51:16.301Z,6.50
2022-08-23T18:56:21.283Z,7.00
2022-08-23T19:01:26.757Z,7.00
2022-08-23T19:06:30.344Z,7.40
2022-08-23T19:11:33.653Z,7.70
2022-08-23T19:16:37.249Z,15.30
2022-08-23T19:21:40.267Z,8.10
2022-08-23T19:26:47.793Z,8.60
2022-08-23T19:31:50.768Z,8.90
2022-08-23T19:37:00.778Z,8.60
2022-08-23T19:42:11.458Z,9.30
2022-08-23T19:52:23.046Z,10.20
2022-08-23T19:57:28.110Z,10.90
2022-08-23T20:02:30.982Z,10.40
2022-08-23T20:07:36.326Z,11.70
2022-08-23T20:12:39.389Z,10.40
2022-08-23T20:17:42.312Z,10.90
2022-08-23T20:23:04.169Z,11.20
2022-08-23T20:28:08.384Z,10.60
2022-08-23T20:33:11.139Z,10.40
2022-08-23T20:38:32.753Z,9.80
2022-08-23T20:43:39.152Z,9.00
2022-08-23T20:48:41.952Z,8.80
2022-08-23T20:53:45.677Z,8.80
2022-08-23T20:58:48.493Z,8.50
2022-08-23T21:03:52.425Z,8.90
2022-08-23T21:08:57.981Z,9.00
2022-08-23T21:14:00.955Z,8.40
2022-08-23T21:19:03.921Z,7.70
2022-08-23T21:24:08.937Z,8.40
2022-08-23T21:29:11.941Z,8.10
2022-08-23T21:34:15.179Z,8.00
2022-08-23T21:39:17.980Z,7.20
2022-08-23T21:44:21.396Z,6.70
2022-08-23T21:49:24.222Z,7.20
2022-08-23T21:54:27.295Z,7.70
2022-08-23T21:59:30.088Z,7.50
2022-08-23T22:04:33.000Z,6.90
2022-08-23T22:09:36.144Z,6.80
2022-08-23T22:14:39.030Z,6.50
2022-08-23T22:19:41.766Z,6.00
2022-08-23T22:24:44.531Z,5.60
2022-08-23T22:29:47.562Z,7.70
2022-08-23T22:34:50.367Z,7.70
2022-08-23T22:39:56.388Z,6.90
2022-08-23T22:45:00.353Z,6.60
2022-08-23T22:50:04.643Z,6.10
2022-08-23T22:55:08.375Z,5.80
2022-08-23T23:00:13.693Z,6.30
2022-08-23T23:05:16.496Z,6.60
2022-08-23T23:10:19.357Z,6.20
2022-08-23T23:15:22.463Z,6.00
2022-08-23T23:20:39.330Z,6.50
2022-08-23T23:25:42.953Z,6.10
2022-08-23T23:30:48.642Z,5.40
2022-08-23T23:35:54.334Z,5.20
2022-08-23T23:40:57.088Z,5.60
2022-08-23T23:46:05.023Z,5.30
2022-08-23T23:51:13.212Z,5.10
2022-08-23T23:56:17.771Z,4.80
